Terminal Aerodrome Forecast
Issued by NWS

Home | Current Version | Previous Version | Graphics & Text | Print | Product List | Glossary On
Versions: 1 2 3 4 5 6 7 8 9 10 11 12
000
FTUS42 KMHX 291700
TAFPGV
TAF
KPGV 291720Z 2918/3018 03008KT P6SM SCT050
     FM300600 VRB03KT 4SM BR SKC
     FM301200 05005KT P6SM SKC
      AMD LTD TO CLD VIS AND WIND=

USA.gov is the U.S. government's official web portal to all federal, state and local government web resources and services.